Time;durP1;ratioP1;P1;durP2;ratioP2;P2;SDS_P1;SDS_P2;PMS_P1;PMS_P2;Temp;Humidity;BMP_temperature;BMP_pressure;BME280_temperature;BME280_humidity;BME280_pressure;Samples;Min_cycle;Max_cycle;Signal;HPM_P1;HPM_P2
2022/06/16 14:44:18;;;;;;;;;10.00;10.00;;;;;;;;5026741;29;1748289;-67
2022/06/16 14:47:02;;;;;;;;;13.00;13.00;;;;;;;;5010491;29;9565;-70
2022/06/16 14:49:41;;;;;;;;;7.75;7.75;;;;;;;;5009957;29;8889;-69
2022/06/16 14:52:15;;;;;;;;;6.75;6.75;;;;;;;;5026049;29;8817;-76
2022/06/16 14:54:53;;;;;;;;;6.00;6.00;;;;;;;;5037267;29;8814;-71
2022/06/16 14:57:29;;;;;;;;;6.00;6.00;;;;;;;;5009779;29;8816;-70
2022/06/16 15:00:00;;;;;;;;;6.25;6.00;;;;;;;;5033538;29;9727;-72
2022/06/16 15:02:35;;;;;;;;;10.00;10.00;;;;;;;;5028775;29;8811;-72
2022/06/16 15:05:08;;;;;;;;;7.75;7.75;;;;;;;;5044659;29;9638;-71
2022/06/16 15:07:41;;;;;;;;;9.50;9.50;;;;;;;;5044630;29;8993;-70
2022/06/16 15:10:14;;;;;;;;;11.75;11.75;;;;;;;;5044824;29;8824;-75
2022/06/16 15:12:45;;;;;;;;;7.50;7.50;;;;;;;;5044448;29;8819;-73
2022/06/16 15:15:24;;;;;;;;;5.75;5.75;;;;;;;;5027825;29;8826;-71
2022/06/16 15:18:13;;;;;;;;;13.00;13.00;;;;;;;;5012233;29;8842;-69
2022/06/16 15:20:50;;;;;;;;;9.75;9.75;;;;;;;;4997482;29;8895;-69
2022/06/16 15:23:23;;;;;;;;;14.00;14.00;;;;;;;;5044447;29;9538;-71
2022/06/16 15:25:55;;;;;;;;;18.75;18.75;;;;;;;;5043969;29;8821;-69
2022/06/16 15:28:29;;;;;;;;;21.50;21.50;;;;;;;;5044412;29;9542;-70
2022/06/16 15:31:14;;;;;;;;;12.00;12.00;;;;;;;;4997099;29;8869;-70
2022/06/16 15:36:43;;;;;;;;;10.25;10.25;;;;;;;;5044534;29;8850;-69
2022/06/16 15:39:17;;;;;;;;;10.50;10.50;;;;;;;;5008026;29;9540;-71
2022/06/16 15:41:50;;;;;;;;;7.50;7.50;;;;;;;;5025229;29;8804;-71
2022/06/16 15:45:08;;;;;;;;;10.75;10.75;;;;;;;;5024678;29;9587;-71
2022/06/16 15:47:40;;;;;;;;;7.50;7.50;;;;;;;;5025539;29;8830;-71
2022/06/16 15:50:13;;;;;;;;;7.00;7.00;;;;;;;;5043803;29;8826;-69
2022/06/16 15:52:47;;;;;;;;;7.00;7.00;;;;;;;;5043718;29;10070;-69
2022/06/16 15:55:21;;;;;;;;;10.25;10.25;;;;;;;;5043852;29;9624;-69
2022/06/16 15:57:56;;;;;;;;;19.50;19.50;;;;;;;;5027301;29;8899;-73
2022/06/16 16:00:31;;;;;;;;;16.00;16.00;;;;;;;;5044180;29;8821;-69
2022/06/16 16:03:05;;;;;;;;;6.00;6.00;;;;;;;;5043688;29;8958;-74
2022/06/16 16:05:40;;;;;;;;;5.50;5.50;;;;;;;;5027699;29;8846;-71
2022/06/16 16:08:14;;;;;;;;;8.75;8.75;;;;;;;;5027735;29;8834;-71
2022/06/16 16:10:46;;;;;;;;;7.00;7.00;;;;;;;;5027391;29;8818;-69
2022/06/16 16:13:18;;;;;;;;;5.75;5.75;;;;;;;;5043566;29;8842;-70
2022/06/16 16:16:04;;;;;;;;;6.50;6.50;;;;;;;;5044352;29;8884;-70
2022/06/16 16:18:37;;;;;;;;;8.25;8.25;;;;;;;;5027869;29;9596;-69
2022/06/16 16:21:32;;;;;;;;;7.00;7.00;;;;;;;;5031752;29;8811;-69
2022/06/16 16:24:04;;;;;;;;;4.00;4.00;;;;;;;;5048916;29;8837;-69
2022/06/16 16:26:51;;;;;;;;;8.00;8.00;;;;;;;;5049469;29;8807;-69
2022/06/16 16:29:22;;;;;;;;;10.00;9.75;;;;;;;;5049159;29;8778;-69
2022/06/16 16:32:01;;;;;;;;;7.75;7.75;;;;;;;;5024920;29;8805;-69
2022/06/16 16:34:36;;;;;;;;;9.25;9.25;;;;;;;;5012927;29;8826;-68
2022/06/16 16:37:19;;;;;;;;;6.75;6.75;;;;;;;;5014458;29;8793;-70
2022/06/16 16:40:19;;;;;;;;;6.75;6.75;;;;;;;;5034059;29;8819;-69
2022/06/16 16:43:10;;;;;;;;;6.00;6.00;;;;;;;;5048990;29;8930;-68
2022/06/16 16:45:42;;;;;;;;;6.75;6.75;;;;;;;;5048909;29;8859;-69
2022/06/16 16:48:17;;;;;;;;;7.00;7.00;;;;;;;;5048568;29;8811;-69
2022/06/16 16:50:54;;;;;;;;;6.00;6.00;;;;;;;;5048946;29;8797;-71
2022/06/16 16:53:57;;;;;;;;;8.25;8.25;;;;;;;;5048581;29;8779;-70
2022/06/16 16:56:32;;;;;;;;;5.00;5.00;;;;;;;;5036984;29;8803;-68
2022/06/16 16:59:03;;;;;;;;;10.25;10.25;;;;;;;;5030760;29;9498;-69
2022/06/16 17:01:39;;;;;;;;;15.25;15.25;;;;;;;;5031130;29;8845;-69
2022/06/16 17:04:26;;;;;;;;;18.00;18.00;;;;;;;;5025682;29;8835;-69
2022/06/16 17:06:56;;;;;;;;;15.00;15.00;;;;;;;;5016583;29;9542;-69
2022/06/16 17:09:27;;;;;;;;;9.00;9.00;;;;;;;;5047991;29;8803;-69
2022/06/16 17:11:59;;;;;;;;;6.33;6.33;;;;;;;;5048258;29;8831;-69
2022/06/16 17:14:34;;;;;;;;;8.00;8.00;;;;;;;;5047948;29;9598;-69
2022/06/16 17:17:06;;;;;;;;;3.00;3.00;;;;;;;;5031909;29;8926;-70
2022/06/16 17:19:40;;;;;;;;;7.25;7.25;;;;;;;;5031761;29;8806;-69
2022/06/16 17:22:20;;;;;;;;;5.75;5.75;;;;;;;;5031413;29;8807;-70
2022/06/16 17:24:54;;;;;;;;;3.00;3.00;;;;;;;;5000593;29;9057;-70
2022/06/16 17:27:27;;;;;;;;;7.00;7.00;;;;;;;;5030416;29;8901;-71
2022/06/16 17:30:23;;;;;;;;;7.25;7.25;;;;;;;;5033353;29;8821;-70
2022/06/16 17:33:04;;;;;;;;;7.50;7.50;;;;;;;;5043553;29;8834;-72
2022/06/16 17:35:40;;;;;;;;;32.20;31.00;;;;;;;;5020548;29;8944;-68
2022/06/16 17:38:35;;;;;;;;;10.50;10.50;;;;;;;;5045577;29;8852;-70
2022/06/16 17:41:14;;;;;;;;;7.00;7.00;;;;;;;;5046321;29;8978;-71
2022/06/16 17:43:48;;;;;;;;;5.25;5.25;;;;;;;;5029676;29;8846;-71
2022/06/16 17:46:19;;;;;;;;;7.25;7.25;;;;;;;;5048229;29;8850;-72
2022/06/16 17:48:57;;;;;;;;;9.50;9.50;;;;;;;;5053964;29;8846;-69
2022/06/16 17:59:39;;;;;;;;;7.25;7.25;;;;;;;;5048197;29;8807;-70
2022/06/16 18:00:02;;;;;;;;;10.00;10.00;;;;;;;;5048015;29;9538;-70
2022/06/16 18:06:24;;;;;;;;;9.25;9.25;;;;;;;;5028907;29;9521;-70
2022/06/16 18:09:27;;;;;;;;;7.25;7.25;;;;;;;;5034661;29;8949;-70
2022/06/16 18:12:00;;;;;;;;;13.00;13.00;;;;;;;;5030139;29;8834;-70
2022/06/16 18:14:33;;;;;;;;;10.75;10.75;;;;;;;;5029896;29;8888;-69
2022/06/16 18:17:11;;;;;;;;;15.50;15.50;;;;;;;;5047059;29;8827;-69
2022/06/16 18:19:43;;;;;;;;;17.25;17.25;;;;;;;;5030246;29;8811;-72
2022/06/16 18:22:15;;;;;;;;;14.00;14.00;;;;;;;;5047184;29;8801;-69
2022/06/16 18:24:50;;;;;;;;;14.25;14.25;;;;;;;;5047001;29;8834;-69
2022/06/16 18:27:22;;;;;;;;;17.25;17.00;;;;;;;;5030021;29;8845;-70
2022/06/16 18:29:57;;;;;;;;;13.00;13.00;;;;;;;;5046579;29;8799;-70
2022/06/16 18:32:30;;;;;;;;;13.00;13.00;;;;;;;;5030856;29;8913;-71
2022/06/16 18:35:02;;;;;;;;;10.50;10.50;;;;;;;;5029981;29;8869;-70
2022/06/16 18:37:33;;;;;;;;;14.50;14.50;;;;;;;;5046620;29;8810;-70
2022/06/16 18:40:05;;;;;;;;;13.00;13.00;;;;;;;;5029330;29;8833;-71
2022/06/16 18:42:36;;;;;;;;;14.50;14.50;;;;;;;;5030166;29;8810;-70
2022/06/16 18:45:11;;;;;;;;;13.75;13.75;;;;;;;;5020364;29;8968;-71
2022/06/16 18:47:46;;;;;;;;;13.00;13.00;;;;;;;;5027521;29;9600;-71
2022/06/16 18:50:58;;;;;;;;;15.25;15.25;;;;;;;;5029003;29;8815;-70
2022/06/16 18:53:33;;;;;;;;;17.00;17.00;;;;;;;;4978752;29;8927;-69
2022/06/16 18:56:04;;;;;;;;;16.25;16.25;;;;;;;;5010930;29;8819;-68
2022/06/16 18:58:36;;;;;;;;;13.00;13.00;;;;;;;;5010167;29;8833;-68
2022/06/16 19:01:09;;;;;;;;;15.25;15.25;;;;;;;;5027366;29;8825;-70
2022/06/16 19:03:40;;;;;;;;;17.75;17.75;;;;;;;;5026925;29;9523;-70
2022/06/16 19:06:15;;;;;;;;;25.75;25.75;;;;;;;;5027026;29;8822;-69
2022/06/16 19:08:46;;;;;;;;;45.60;38.80;;;;;;;;5026511;29;11512;-70
2022/06/16 19:11:19;;;;;;;;;34.40;32.00;;;;;;;;5026967;29;9514;-68
2022/06/16 19:13:50;;;;;;;;;22.50;22.50;;;;;;;;5026846;29;8786;-68
2022/06/16 19:16:39;;;;;;;;;23.75;22.75;;;;;;;;5027377;29;8830;-69
2022/06/16 19:19:28;;;;;;;;;22.00;20.75;;;;;;;;5026298;29;8866;-69
2022/06/16 19:22:02;;;;;;;;;52.40;43.80;;;;;;;;5010701;29;8806;-69
2022/06/16 19:24:33;;;;;;;;;48.60;41.60;;;;;;;;5026494;29;8834;-69
2022/06/16 19:27:04;;;;;;;;;40.00;36.00;;;;;;;;5026222;29;8822;-70
2022/06/16 19:29:35;;;;;;;;;39.20;35.80;;;;;;;;5009933;29;9062;-70
2022/06/16 19:32:07;;;;;;;;;36.80;33.40;;;;;;;;5026613;29;8941;-68
2022/06/16 19:34:38;;;;;;;;;23.80;23.80;;;;;;;;5026865;29;8817;-69
2022/06/16 19:37:28;;;;;;;;;12.50;12.50;;;;;;;;5027029;29;8794;-70
2022/06/16 19:40:24;;;;;;;;;9.25;9.25;;;;;;;;5027272;29;8799;-68
2022/06/16 19:42:55;;;;;;;;;10.00;10.00;;;;;;;;4995342;29;8798;-68
2022/06/16 19:51:08;;;;;;;;;5.00;5.00;;;;;;;;5028299;29;8838;-74
2022/06/16 19:53:44;;;;;;;;;4.50;4.50;;;;;;;;4995409;29;8812;-69
2022/06/16 19:56:22;;;;;;;;;5.25;5.25;;;;;;;;5003599;29;8844;-70
2022/06/16 19:59:11;;;;;;;;;6.50;6.50;;;;;;;;5026966;29;8828;-70
2022/06/16 20:01:43;;;;;;;;;6.33;6.33;;;;;;;;5026475;29;8844;-69
2022/06/16 20:04:14;;;;;;;;;6.25;6.25;;;;;;;;5026167;29;10071;-69
2022/06/16 20:06:45;;;;;;;;;32.00;30.75;;;;;;;;5025327;29;8823;-70
2022/06/16 20:09:16;;;;;;;;;15.67;15.67;;;;;;;;5046228;29;11574;-70
2022/06/16 20:11:47;;;;;;;;;11.00;11.00;;;;;;;;5029047;29;8799;-71
2022/06/16 20:14:19;;;;;;;;;13.33;13.33;;;;;;;;5029189;29;8820;-71
2022/06/16 20:16:49;;;;;;;;;14.25;14.25;;;;;;;;5045631;29;10219;-71
2022/06/16 20:19:21;;;;;;;;;7.67;7.00;;;;;;;;5032811;29;8813;-70
2022/06/16 20:21:52;;;;;;;;;10.50;10.50;;;;;;;;5000642;29;8827;-70
2022/06/16 20:24:24;;;;;;;;;12.67;12.67;;;;;;;;5044698;29;8838;-69
2022/06/16 20:26:56;;;;;;;;;10.75;10.75;;;;;;;;5045221;29;9158;-69
2022/06/16 20:29:28;;;;;;;;;11.50;11.25;;;;;;;;5028915;29;8821;-69
2022/06/16 20:31:59;;;;;;;;;10.00;10.00;;;;;;;;5045102;29;8798;-69
2022/06/16 20:34:48;;;;;;;;;10.75;10.75;;;;;;;;5045571;29;8909;-69
2022/06/16 20:37:19;;;;;;;;;8.33;8.33;;;;;;;;5045547;29;9001;-69
2022/06/16 20:39:50;;;;;;;;;7.00;7.00;;;;;;;;5045426;29;8866;-69
2022/06/16 20:42:21;;;;;;;;;7.00;7.00;;;;;;;;5045096;29;8819;-66
2022/06/16 20:44:55;;;;;;;;;9.75;9.25;;;;;;;;5045393;29;8842;-69
2022/06/16 20:47:26;;;;;;;;;10.00;10.00;;;;;;;;5028738;29;8782;-68
2022/06/16 20:49:58;;;;;;;;;10.00;10.00;;;;;;;;5045262;29;8790;-68
2022/06/16 20:52:28;;;;;;;;;8.50;8.50;;;;;;;;5014560;29;8805;-68
2022/06/16 20:55:00;;;;;;;;;7.75;7.75;;;;;;;;5030634;29;8839;-68
2022/06/16 21:03:09;;;;;;;;;4.50;4.00;;;;;;;;5046181;29;8794;-68
2022/06/16 21:05:42;;;;;;;;;8.00;8.00;;;;;;;;5048825;29;9558;-68
2022/06/16 21:08:15;;;;;;;;;6.00;6.00;;;;;;;;5048999;29;8821;-69
2022/06/16 21:10:47;;;;;;;;;6.00;6.00;;;;;;;;5048731;29;8831;-69
2022/06/16 21:13:18;;;;;;;;;7.50;7.50;;;;;;;;5048592;29;8892;-69
2022/06/16 21:15:50;;;;;;;;;18.50;17.75;;;;;;;;5048058;29;8818;-69
2022/06/16 21:18:23;;;;;;;;;20.50;19.75;;;;;;;;5043207;29;8849;-68
2022/06/16 21:20:54;;;;;;;;;10.25;10.25;;;;;;;;5029447;29;8938;-68
2022/06/16 21:23:26;;;;;;;;;8.25;8.25;;;;;;;;5029428;29;8816;-68
2022/06/16 21:25:57;;;;;;;;;5.75;5.75;;;;;;;;5029220;29;8836;-69
2022/06/16 21:28:28;;;;;;;;;9.00;9.00;;;;;;;;5029478;29;9522;-68
2022/06/16 21:30:59;;;;;;;;;6.67;6.67;;;;;;;;5028995;29;11538;-67
2022/06/16 21:33:30;;;;;;;;;4.00;4.00;;;;;;;;5029246;29;11026;-68
2022/06/16 21:36:01;;;;;;;;;4.50;4.50;;;;;;;;5038342;29;8942;-67
2022/06/16 21:38:32;;;;;;;;;4.33;4.33;;;;;;;;5047550;29;8842;-68
2022/06/16 21:41:03;;;;;;;;;5.00;5.00;;;;;;;;5048145;29;11464;-68
2022/06/16 21:43:53;;;;;;;;;6.00;6.00;;;;;;;;5047811;29;8973;-67
2022/06/16 21:46:25;;;;;;;;;5.00;5.00;;;;;;;;5013153;29;8842;-67
2022/06/16 21:48:59;;;;;;;;;5.75;5.75;;;;;;;;5028748;29;8817;-67
2022/06/16 21:51:50;;;;;;;;;5.25;5.25;;;;;;;;5028400;29;8814;-67
2022/06/16 21:54:23;;;;;;;;;6.00;6.00;;;;;;;;5028710;29;8818;-68
2022/06/16 21:56:54;;;;;;;;;6.00;6.00;;;;;;;;5028518;29;8840;-68
2022/06/16 21:59:25;;;;;;;;;8.00;7.00;;;;;;;;5012438;29;8794;-68
2022/06/16 22:01:56;;;;;;;;;5.25;5.25;;;;;;;;5028604;29;9652;-68
2022/06/16 22:04:31;;;;;;;;;9.75;9.75;;;;;;;;5028434;29;8857;-68
2022/06/16 22:07:20;;;;;;;;;13.75;13.75;;;;;;;;5028619;29;8795;-68
2022/06/16 22:09:51;;;;;;;;;15.67;15.67;;;;;;;;5011478;29;8818;-68
2022/06/16 22:12:22;;;;;;;;;12.25;12.25;;;;;;;;5028202;29;11461;-68
2022/06/16 22:17:49;;;;;;;;;12.00;12.00;;;;;;;;5028342;29;8854;-68
2022/06/16 22:20:25;;;;;;;;;14.00;14.00;;;;;;;;5028247;29;8820;-69
2022/06/16 22:22:56;;;;;;;;;13.00;13.00;;;;;;;;4996782;29;8775;-69
2022/06/16 22:25:33;;;;;;;;;11.50;11.50;;;;;;;;5028154;29;8818;-69
2022/06/16 22:28:11;;;;;;;;;11.50;11.50;;;;;;;;4996451;29;8917;-68
2022/06/16 22:30:43;;;;;;;;;9.00;9.00;;;;;;;;5027753;29;8807;-69
2022/06/16 22:33:23;;;;;;;;;9.25;9.25;;;;;;;;5028570;29;9642;-69
2022/06/16 22:35:55;;;;;;;;;7.00;7.00;;;;;;;;4977411;29;9563;-69
2022/06/16 22:38:26;;;;;;;;;8.50;8.50;;;;;;;;5009115;29;8785;-69
2022/06/16 22:40:58;;;;;;;;;5.25;5.25;;;;;;;;4994396;29;8867;-69
2022/06/16 22:43:30;;;;;;;;;5.25;5.25;;;;;;;;5027769;29;9601;-69
2022/06/16 22:46:43;;;;;;;;;5.75;5.75;;;;;;;;5028078;29;8860;-69
2022/06/16 22:49:19;;;;;;;;;5.50;5.50;;;;;;;;5026725;29;9572;-69
2022/06/16 22:51:54;;;;;;;;;5.00;5.00;;;;;;;;4996338;29;8816;-68
2022/06/16 22:57:16;;;;;;;;;5.00;5.00;;;;;;;;5010053;29;8806;-68
2022/06/16 22:59:47;;;;;;;;;5.00;5.00;;;;;;;;5011165;29;8839;-69
2022/06/16 23:02:18;;;;;;;;;4.50;4.50;;;;;;;;5011371;29;9536;-69
2022/06/16 23:04:49;;;;;;;;;5.00;5.00;;;;;;;;5027593;29;8834;-68
2022/06/16 23:07:25;;;;;;;;;5.75;5.75;;;;;;;;5011210;29;8893;-68
2022/06/16 23:09:57;;;;;;;;;3.25;3.25;;;;;;;;5027461;29;8814;-68
2022/06/16 23:12:28;;;;;;;;;4.50;4.50;;;;;;;;5010944;29;8798;-69
2022/06/16 23:14:59;;;;;;;;;5.00;5.00;;;;;;;;5027026;29;8815;-69
2022/06/16 23:17:30;;;;;;;;;4.00;4.00;;;;;;;;5010971;29;8830;-69
2022/06/16 23:20:01;;;;;;;;;2.00;2.00;;;;;;;;5027386;29;8811;-68
2022/06/16 23:22:33;;;;;;;;;5.50;5.50;;;;;;;;4995616;29;8798;-70
2022/06/16 23:25:05;;;;;;;;;7.75;7.00;;;;;;;;5010325;29;8834;-70
2022/06/16 23:27:36;;;;;;;;;7.25;7.25;;;;;;;;5027572;29;8812;-69
2022/06/16 23:30:07;;;;;;;;;5.00;5.00;;;;;;;;5027126;29;8818;-69
2022/06/16 23:32:39;;;;;;;;;5.25;5.25;;;;;;;;5027284;29;8795;-69
2022/06/16 23:35:13;;;;;;;;;6.50;6.50;;;;;;;;5026517;29;8944;-68
2022/06/16 23:37:45;;;;;;;;;6.25;6.25;;;;;;;;5027085;29;8805;-68
2022/06/16 23:40:16;;;;;;;;;5.50;5.50;;;;;;;;5026781;29;8890;-68
2022/06/16 23:42:47;;;;;;;;;6.25;6.25;;;;;;;;5010536;29;8802;-68
2022/06/16 23:45:18;;;;;;;;;8.00;8.00;;;;;;;;5010423;29;8834;-68
2022/06/16 23:50:39;;;;;;;;;10.50;10.50;;;;;;;;5026931;29;11077;-68
2022/06/16 23:53:11;;;;;;;;;6.00;6.00;;;;;;;;5026681;29;8918;-68
2022/06/16 23:55:42;;;;;;;;;7.00;7.00;;;;;;;;5026443;29;9684;-68
2022/06/16 23:58:18;;;;;;;;;8.25;8.25;;;;;;;;5026734;29;8782;-68
